Time;durP1;ratioP1;P1;durP2;ratioP2;P2;SDS_P1;SDS_P2;PMS_P1;PMS_P2;Temp;Humidity;BMP_temperature;BMP_pressure;BME280_temperature;BME280_humidity;BME280_pressure;Samples;Min_cycle;Max_cycle;Signal;HPM_P1;HPM_P2
2022/05/28 00:01:31;;;;;;;7.47;5.60;;;;;;;15.69;95.19;98505.06;4126383;28;20633;-89
2022/05/28 00:03:36;;;;;;;6.33;4.70;;;;;;;15.66;94.47;98503.50;4139793;28;20635;-88
2022/05/28 00:05:41;;;;;;;5.87;5.23;;;;;;;15.63;94.44;98498.50;4137435;28;20649;-89
2022/05/28 00:07:44;;;;;;;7.27;5.50;;;;;;;15.64;93.36;98508.06;4133625;28;20704;-88
2022/05/28 00:09:47;;;;;;;6.53;4.70;;;;;;;15.59;94.18;98504.97;4157035;28;20713;-89
2022/05/28 00:11:53;;;;;;;10.17;5.43;;;;;;;15.55;93.75;98499.28;4106067;28;21106;-89
2022/05/28 00:13:57;;;;;;;6.17;5.13;;;;;;;15.50;94.48;98506.69;4128110;28;20653;-88
2022/05/28 00:16:00;;;;;;;5.73;4.70;;;;;;;15.47;93.64;98506.94;4125534;28;20666;-89
2022/05/28 00:18:04;;;;;;;6.50;4.90;;;;;;;15.40;94.48;98503.97;4142471;28;20636;-89
2022/05/28 00:20:10;;;;;;;7.47;5.60;;;;;;;15.39;93.01;98509.34;4140911;28;20701;-88
2022/05/28 00:22:13;;;;;;;5.57;4.90;;;;;;;15.38;94.40;98512.94;4125224;28;20664;-89
2022/05/28 00:24:16;;;;;;;5.60;5.00;;;;;;;15.38;93.51;98502.41;4128115;28;20733;-89
2022/05/28 00:26:20;;;;;;;9.27;5.57;;;;;;;15.39;93.90;98504.09;4125748;28;20635;-88
2022/05/28 00:28:23;;;;;;;6.30;5.70;;;;;;;15.40;92.50;98503.16;4144369;28;20627;-89
2022/05/28 00:30:26;;;;;;;6.40;5.50;;;;;;;15.39;92.95;98510.16;4129993;28;20874;-89
2022/05/28 00:32:29;;;;;;;7.20;5.60;;;;;;;15.37;93.35;98506.03;4142916;28;20633;-89
2022/05/28 00:34:32;;;;;;;10.23;6.10;;;;;;;15.34;94.49;98507.09;4128129;28;20633;-90
2022/05/28 00:36:37;;;;;;;7.00;6.00;;;;;;;15.30;92.44;98516.16;4122881;28;20645;-88
2022/05/28 00:38:41;;;;;;;7.93;5.90;;;;;;;15.27;93.63;98512.97;4105746;28;20651;-89
2022/05/28 00:40:46;;;;;;;6.67;5.50;;;;;;;15.23;91.66;98522.03;4153457;28;20685;-89
2022/05/28 00:42:50;;;;;;;8.40;6.00;;;;;;;15.20;92.99;98519.69;4104847;28;20636;-87
2022/05/28 00:44:55;;;;;;;8.57;5.50;;;;;;;15.21;91.71;98521.34;4140047;28;20637;-89
2022/05/28 00:46:59;;;;;;;9.07;6.60;;;;;;;15.20;93.81;98522.31;4143875;28;20647;-87
2022/05/28 00:49:06;;;;;;;10.10;7.17;;;;;;;15.19;93.69;98520.63;4120775;28;20646;-88
2022/05/28 00:51:11;;;;;;;8.67;6.73;;;;;;;15.14;91.34;98531.47;4140815;28;21230;-89
2022/05/28 00:53:16;;;;;;;10.60;7.43;;;;;;;15.12;91.36;98535.16;4141739;28;20642;-88
2022/05/28 00:55:19;;;;;;;9.50;6.97;;;;;;;15.09;91.28;98531.00;4107969;28;20695;-88
2022/05/28 00:57:23;;;;;;;7.33;4.80;;;;;;;15.10;92.01;98539.72;4124089;28;22034;-88
2022/05/28 00:59:26;;;;;;;6.00;4.90;;;;;;;15.08;91.38;98529.34;4141343;28;21031;-89
2022/05/28 01:01:31;;;;;;;6.70;4.30;;;;;;;15.06;89.65;98529.56;4124847;28;21197;-89
2022/05/28 01:03:40;;;;;;;6.43;4.27;;;;;;;15.05;89.63;98530.53;4125724;28;20645;-89
2022/05/28 01:05:48;;;;;;;6.73;4.13;;;;;;;15.05;88.97;98527.88;4137900;28;20652;-89
2022/05/28 01:08:01;;;;;;;7.03;4.27;;;;;;;15.01;85.69;98516.81;4153476;28;20750;-88
2022/05/28 01:10:10;;;;;;;7.97;4.03;;;;;;;14.96;82.63;98520.72;4139684;28;21124;-89
2022/05/28 01:12:15;;;;;;;7.70;4.10;;;;;;;14.94;85.86;98517.41;4105502;28;20635;-89
2022/05/28 01:14:21;;;;;;;7.00;3.83;;;;;;;14.91;84.34;98518.47;4121257;28;20631;-89
2022/05/28 01:16:29;;;;;;;6.50;4.00;;;;;;;14.90;86.58;98527.31;4141476;28;20636;-89
2022/05/28 01:18:35;;;;;;;6.20;4.30;;;;;;;14.89;86.51;98524.81;4143668;28;20639;-89
2022/05/28 01:20:41;;;;;;;6.03;3.57;;;;;;;14.88;87.16;98537.09;4140095;28;20823;-88
2022/05/28 01:22:57;;;;;;;6.93;4.20;;;;;;;14.85;87.14;98532.09;4135999;28;20687;-89
2022/05/28 01:25:07;;;;;;;6.67;3.30;;;;;;;14.77;84.04;98529.22;4157181;28;20648;-89
2022/05/28 01:27:15;;;;;;;6.33;3.33;;;;;;;14.74;83.43;98526.84;4125080;28;20665;-89
2022/05/28 01:29:18;;;;;;;8.10;3.70;;;;;;;14.72;81.06;98523.50;4124745;28;20646;-88
2022/05/28 01:31:22;;;;;;;10.67;3.37;;;;;;;14.67;80.55;98524.81;4122306;28;20677;-90
2022/05/28 01:33:25;;;;;;;8.20;3.07;;;;;;;14.63;79.70;98528.66;4135688;28;20693;-89
2022/05/28 01:35:30;;;;;;;8.77;3.40;;;;;;;14.57;78.26;98516.00;4137102;28;20641;-89
2022/05/28 01:37:34;;;;;;;6.70;3.40;;;;;;;14.43;75.97;98510.94;4139946;28;20619;-89
2022/05/28 01:39:38;;;;;;;5.50;3.10;;;;;;;14.38;76.40;98514.91;4126473;28;20630;-88
2022/05/28 01:41:42;;;;;;;10.50;3.37;;;;;;;14.29;75.92;98516.41;4141342;28;20641;-89
2022/05/28 01:43:48;;;;;;;6.00;3.37;;;;;;;14.30;78.22;98517.28;4155452;28;21267;-89
2022/05/28 01:45:51;;;;;;;4.53;2.70;;;;;;;14.24;75.71;98517.75;4140372;28;20709;-89
2022/05/28 01:47:56;;;;;;;8.30;3.10;;;;;;;14.18;77.58;98511.16;4140424;28;20636;-88
2022/05/28 01:50:00;;;;;;;7.73;2.83;;;;;;;14.18;77.20;98513.78;4138264;28;20637;-89
2022/05/28 01:52:04;;;;;;;7.57;3.43;;;;;;;14.19;79.31;98522.50;4127795;28;20657;-88
2022/05/28 01:54:11;;;;;;;8.00;3.37;;;;;;;14.20;80.83;98521.53;4125382;28;20630;-89
2022/05/28 01:56:15;;;;;;;7.33;3.37;;;;;;;14.17;82.29;98512.09;4132817;28;20646;-89
2022/05/28 01:58:19;;;;;;;7.67;3.20;;;;;;;14.17;82.94;98508.66;4141024;28;20633;-87
2022/05/28 02:00:23;;;;;;;6.90;3.00;;;;;;;14.15;84.25;98505.31;4137369;28;21254;-90
2022/05/28 02:02:27;;;;;;;10.03;3.23;;;;;;;14.12;83.85;98504.69;4160145;28;21130;-91
2022/05/28 02:04:30;;;;;;;8.07;3.20;;;;;;;14.11;81.98;98508.28;4110358;28;20746;-90
2022/05/28 02:06:34;;;;;;;6.30;3.40;;;;;;;14.10;83.05;98501.38;4130166;28;20673;-89
2022/05/28 02:08:40;;;;;;;5.00;2.97;;;;;;;14.07;83.74;98506.84;4144056;28;20723;-89
2022/05/28 02:10:48;;;;;;;7.90;3.20;;;;;;;14.04;84.58;98507.88;4124158;28;21022;-90
2022/05/28 02:12:54;;;;;;;5.17;3.10;;;;;;;14.03;83.88;98506.22;4121822;28;21263;-88
2022/05/28 02:15:18;;;;;;;8.37;2.73;;;;;;;14.00;81.96;98506.44;4140310;28;20640;-89
2022/05/28 02:17:29;;;;;;;4.70;2.50;;;;;;;13.97;79.28;98509.31;4140049;28;20636;-88
2022/05/28 02:19:39;;;;;;;6.40;2.73;;;;;;;13.99;80.56;98507.38;4136919;28;20632;-90
2022/05/28 02:21:45;;;;;;;8.40;3.17;;;;;;;13.97;81.93;98511.94;4105967;28;20646;-89
2022/05/28 02:23:53;;;;;;;9.20;3.50;;;;;;;13.94;81.69;98509.53;4158755;28;20636;-90
2022/05/28 02:26:00;;;;;;;5.80;2.70;;;;;;;13.90;81.74;98500.22;4114592;28;20650;-90
2022/05/28 02:28:05;;;;;;;7.93;2.70;;;;;;;13.89;80.73;98500.31;4134132;28;20642;-90
2022/05/28 02:30:10;;;;;;;4.60;2.90;;;;;;;13.85;82.44;98504.97;4155091;28;21267;-88
2022/05/28 02:32:15;;;;;;;7.10;2.83;;;;;;;13.83;81.69;98498.16;4110511;28;20659;-90
2022/05/28 02:34:20;;;;;;;7.37;2.80;;;;;;;13.79;79.50;98497.56;4135133;28;20640;-89
2022/05/28 02:36:23;;;;;;;9.23;3.57;;;;;;;13.78;79.38;98497.69;4137956;28;20641;-88
2022/05/28 02:38:27;;;;;;;6.63;3.40;;;;;;;13.73;78.93;98495.41;4136639;28;20630;-89
2022/05/28 02:40:30;;;;;;;8.40;2.70;;;;;;;13.69;81.03;98496.56;4136878;28;20666;-90
2022/05/28 02:42:33;;;;;;;5.80;2.70;;;;;;;13.64;81.16;98498.69;4120071;28;20678;-89
2022/05/28 02:44:36;;;;;;;7.50;2.83;;;;;;;13.60;80.80;98504.28;4155090;28;20698;-90
2022/05/28 02:46:39;;;;;;;6.83;3.40;;;;;;;13.57;81.39;98504.50;4118966;28;20686;-89
2022/05/28 02:48:43;;;;;;;8.03;2.80;;;;;;;13.52;82.32;98500.56;4140537;28;20693;-88
2022/05/28 02:50:47;;;;;;;7.43;2.97;;;;;;;13.47;81.54;98500.91;4123499;28;20648;-90
2022/05/28 02:52:50;;;;;;;5.60;2.90;;;;;;;13.44;82.79;98498.50;4140141;28;21097;-90
2022/05/28 02:54:54;;;;;;;9.27;2.90;;;;;;;13.39;81.65;98491.91;4138251;28;20704;-90
2022/05/28 02:56:57;;;;;;;13.60;3.70;;;;;;;13.36;82.21;98500.00;4142641;28;20645;-87
2022/05/28 02:59:00;;;;;;;8.07;2.50;;;;;;;13.32;81.99;98499.41;4107727;28;20657;-89
2022/05/28 03:01:04;;;;;;;11.63;3.67;;;;;;;13.26;81.50;98506.84;4136824;28;21109;-89
2022/05/28 03:03:08;;;;;;;9.37;2.87;;;;;;;13.22;81.62;98508.84;4139209;28;20657;-89
2022/05/28 03:05:12;;;;;;;7.70;2.20;;;;;;;13.19;79.31;98505.63;4121765;28;20655;-89
2022/05/28 03:07:17;;;;;;;6.90;2.90;;;;;;;13.16;77.50;98505.84;4137941;28;21152;-88
2022/05/28 03:09:21;;;;;;;7.50;3.23;;;;;;;13.10;79.15;98501.06;4140109;28;21006;-90
2022/05/28 03:11:24;;;;;;;9.90;3.20;;;;;;;13.07;80.77;98511.75;4123586;28;20688;-88
2022/05/28 03:13:27;;;;;;;7.80;2.93;;;;;;;13.02;81.45;98513.00;4123098;28;20685;-90
2022/05/28 03:15:30;;;;;;;6.83;3.20;;;;;;;12.93;81.41;98504.03;4141272;28;20635;-89
2022/05/28 03:17:33;;;;;;;5.60;2.70;;;;;;;12.88;82.29;98511.38;4138996;28;20692;-89
2022/05/28 03:19:36;;;;;;;11.33;3.23;;;;;;;12.79;81.91;98501.53;4151275;28;21003;-88
2022/05/28 03:21:40;;;;;;;6.63;2.60;;;;;;;12.68;82.43;98499.78;4122060;28;20641;-90
2022/05/28 03:23:47;;;;;;;5.47;2.50;;;;;;;12.56;81.33;98503.25;4140038;28;21012;-90
2022/05/28 03:25:50;;;;;;;6.50;3.00;;;;;;;12.46;82.20;98500.44;4155596;28;21308;-90
2022/05/28 03:27:54;;;;;;;6.60;3.23;;;;;;;12.37;83.39;98501.09;4151599;28;20644;-89
2022/05/28 03:29:57;;;;;;;6.67;3.40;;;;;;;12.32;82.28;98494.47;4137681;28;21030;-89
2022/05/28 03:32:00;;;;;;;8.70;4.63;;;;;;;12.29;83.74;98505.97;4108763;28;20673;-88
2022/05/28 03:34:03;;;;;;;8.87;3.10;;;;;;;12.27;83.83;98501.81;4139067;28;21026;-89
2022/05/28 03:36:07;;;;;;;8.33;2.80;;;;;;;12.29;83.25;98510.38;4140464;28;20668;-89
2022/05/28 03:38:12;;;;;;;6.87;2.80;;;;;;;12.31;83.71;98504.13;4141046;28;20643;-89
2022/05/28 03:40:17;;;;;;;5.13;2.30;;;;;;;12.29;81.92;98510.38;4137910;28;20714;-89
2022/05/28 03:42:20;;;;;;;3.60;2.23;;;;;;;12.24;81.22;98518.53;4155156;28;20709;-90
2022/05/28 03:44:23;;;;;;;7.53;2.90;;;;;;;12.15;82.30;98514.88;4154693;28;20640;-89
2022/05/28 03:46:28;;;;;;;4.77;2.20;;;;;;;12.12;83.54;98517.69;4154123;28;20635;-88
2022/05/28 03:48:33;;;;;;;5.70;2.40;;;;;;;12.10;84.87;98512.56;4137130;28;20663;-89
2022/05/28 03:50:36;;;;;;;9.00;3.00;;;;;;;12.09;84.68;98513.53;4140440;28;20632;-89
2022/05/28 03:52:39;;;;;;;9.97;3.43;;;;;;;12.11;84.36;98513.41;4122808;28;20656;-89
2022/05/28 03:54:44;;;;;;;5.80;2.63;;;;;;;12.10;84.68;98520.41;4121723;28;20642;-89
2022/05/28 03:56:50;;;;;;;5.87;2.83;;;;;;;12.10;83.72;98530.84;4123858;28;20663;-89
2022/05/28 03:58:53;;;;;;;4.80;2.33;;;;;;;12.08;83.76;98524.91;4108688;28;20637;-89
2022/05/28 04:00:56;;;;;;;7.47;3.17;;;;;;;12.06;84.04;98528.59;4140131;28;20648;-90
2022/05/28 04:03:00;;;;;;;6.53;3.00;;;;;;;12.04;86.88;98533.06;4137976;28;24593;-89
2022/05/28 04:05:04;;;;;;;7.70;2.70;;;;;;;12.02;86.10;98538.38;4137122;28;20626;-90
2022/05/28 04:07:07;;;;;;;8.10;3.17;;;;;;;12.02;84.87;98540.19;4156650;28;20665;-89
2022/05/28 04:09:10;;;;;;;6.27;3.20;;;;;;;12.03;85.65;98540.06;4137199;28;20638;-89
2022/05/28 04:11:14;;;;;;;6.10;2.53;;;;;;;12.03;86.23;98541.88;4136483;28;20623;-89
2022/05/28 04:13:18;;;;;;;5.90;3.10;;;;;;;12.04;86.38;98541.75;4136454;28;20750;-89
2022/05/28 04:15:22;;;;;;;9.73;3.37;;;;;;;12.05;85.63;98539.97;4139356;28;21301;-89
2022/05/28 04:17:25;;;;;;;9.90;3.43;;;;;;;12.05;86.79;98538.19;4142044;28;20638;-89
2022/05/28 04:19:28;;;;;;;5.47;2.90;;;;;;;12.08;87.04;98547.63;4157313;28;20643;-87
2022/05/28 04:21:31;;;;;;;4.00;3.00;;;;;;;12.11;87.17;98544.78;4126055;28;20632;-89
2022/05/28 04:23:34;;;;;;;10.53;2.77;;;;;;;12.16;85.86;98550.53;4110245;28;21725;-87
2022/05/28 04:25:38;;;;;;;10.83;5.20;;;;;;;12.17;84.23;98542.59;4154560;28;20740;-89
2022/05/28 04:27:42;;;;;;;5.67;2.63;;;;;;;12.19;85.45;98547.72;4146331;28;20626;-89
2022/05/28 04:29:48;;;;;;;11.50;3.10;;;;;;;12.22;84.79;98550.97;4142586;28;20671;-89
2022/05/28 04:31:52;;;;;;;7.10;2.93;;;;;;;12.25;84.32;98553.38;4144901;28;20749;-89
2022/05/28 04:33:55;;;;;;;4.80;2.67;;;;;;;12.21;83.49;98554.53;4128636;28;20644;-88
2022/05/28 04:35:58;;;;;;;7.87;3.60;;;;;;;12.23;85.36;98557.03;4145470;28;20741;-89
2022/05/28 04:38:01;;;;;;;8.63;3.37;;;;;;;12.23;84.31;98559.66;4140192;28;21084;-89
2022/05/28 04:40:06;;;;;;;5.97;2.43;;;;;;;12.22;84.42;98555.34;4128084;28;20639;-90
2022/05/28 04:42:09;;;;;;;7.90;2.90;;;;;;;12.23;84.11;98551.81;4138888;28;20631;-90
2022/05/28 04:44:12;;;;;;;8.27;2.97;;;;;;;12.21;84.54;98559.75;4124595;28;20719;-89
2022/05/28 04:46:17;;;;;;;6.80;2.57;;;;;;;12.24;85.37;98559.56;4140719;28;20650;-88
2022/05/28 04:48:21;;;;;;;5.47;2.93;;;;;;;12.26;84.62;98558.50;4129168;28;20669;-89
2022/05/28 04:50:24;;;;;;;7.57;3.00;;;;;;;12.32;83.07;98559.88;4128024;28;20636;-89
2022/05/28 04:52:27;;;;;;;7.23;3.10;;;;;;;12.40;82.55;98570.63;4108794;28;20649;-89
2022/05/28 04:54:30;;;;;;;6.90;3.30;;;;;;;12.34;82.00;98571.06;4140751;28;20736;-88
2022/05/28 04:56:34;;;;;;;7.50;3.10;;;;;;;12.36;82.84;98569.19;4157072;28;20640;-85
2022/05/28 04:58:37;;;;;;;5.97;3.03;;;;;;;12.41;82.34;98570.53;4124089;28;21221;-88
2022/05/28 05:00:40;;;;;;;4.60;2.70;;;;;;;12.50;83.77;98577.75;4124921;28;21277;-87
2022/05/28 05:02:45;;;;;;;8.03;3.10;;;;;;;12.56;84.75;98579.13;4137201;28;20632;-88
2022/05/28 05:04:48;;;;;;;7.57;2.63;;;;;;;12.61;83.54;98574.41;4135982;28;20723;-89
2022/05/28 05:06:51;;;;;;;7.47;3.00;;;;;;;12.68;84.10;98582.56;4140605;28;21495;-90
2022/05/28 05:08:54;;;;;;;10.10;3.20;;;;;;;12.75;82.78;98577.78;4125223;28;20639;-91
2022/05/28 05:10:57;;;;;;;7.90;2.97;;;;;;;12.79;82.83;98573.97;4156990;28;20647;-91
2022/05/28 05:13:01;;;;;;;4.80;2.60;;;;;;;12.85;83.20;98579.69;4124472;28;20657;-94
2022/05/28 05:15:05;;;;;;;7.83;3.67;;;;;;;12.91;82.83;98579.22;4138847;28;20681;-92
2022/05/28 05:17:08;;;;;;;5.43;2.77;;;;;;;12.96;82.48;98585.00;4136213;28;20687;-89
2022/05/28 05:19:13;;;;;;;6.20;3.03;;;;;;;13.03;84.14;98580.97;4127293;28;20995;-93
2022/05/28 05:21:17;;;;;;;7.20;2.87;;;;;;;13.05;83.12;98581.72;4122724;28;20647;-91
2022/05/28 05:23:20;;;;;;;6.20;3.30;;;;;;;13.12;82.87;98588.19;4125414;28;20635;-92
2022/05/28 05:25:23;;;;;;;7.13;3.30;;;;;;;13.19;82.93;98592.06;4125620;28;20647;-92
2022/05/28 05:27:27;;;;;;;7.17;3.20;;;;;;;13.29;81.69;98585.22;4133840;28;20678;-92
2022/05/28 05:29:30;;;;;;;6.13;3.00;;;;;;;13.39;81.38;98588.88;4142980;28;20647;-92
2022/05/28 05:31:36;;;;;;;7.17;3.10;;;;;;;13.49;81.46;98595.97;4142615;28;20632;-92
2022/05/28 05:33:39;;;;;;;8.70;3.20;;;;;;;13.58;81.44;98594.47;4124130;28;21169;-93
2022/05/28 05:35:44;;;;;;;8.30;2.93;;;;;;;13.70;81.14;98594.41;4128397;28;20629;-93
2022/05/28 05:37:47;;;;;;;9.20;3.10;;;;;;;13.82;80.05;98599.59;4154950;28;20650;-93
2022/05/28 05:39:50;;;;;;;6.93;2.97;;;;;;;14.01;78.82;98607.78;4140556;28;20625;-92
2022/05/28 05:41:55;;;;;;;6.67;3.53;;;;;;;14.24;76.68;98604.34;4158053;28;21074;-93
2022/05/28 05:43:58;;;;;;;11.00;3.00;;;;;;;14.50;76.64;98596.16;4140991;28;20746;-93
2022/05/28 05:46:02;;;;;;;8.00;2.93;;;;;;;14.82;75.80;98605.84;4128714;28;20646;-94
2022/05/28 05:48:06;;;;;;;6.00;2.77;;;;;;;15.19;75.04;98612.59;4139899;28;20782;-94
2022/05/28 05:50:10;;;;;;;8.37;2.97;;;;;;;15.40;74.35;98613.56;4126357;28;20756;-94
2022/05/28 05:52:14;;;;;;;9.07;2.63;;;;;;;15.58;75.73;98616.38;4140483;28;21092;-93
2022/05/28 05:54:20;;;;;;;10.00;3.13;;;;;;;15.85;71.68;98616.78;4155890;28;20694;-91
2022/05/28 05:56:23;;;;;;;8.90;2.90;;;;;;;16.15;71.36;98619.56;4144428;28;20644;-92
2022/05/28 05:58:26;;;;;;;8.33;2.73;;;;;;;16.34;71.25;98617.97;4139772;28;20633;-90
2022/05/28 06:00:29;;;;;;;8.50;2.53;;;;;;;16.59;69.71;98612.28;4129290;28;20737;-90
2022/05/28 06:02:33;;;;;;;8.20;2.47;;;;;;;16.81;69.93;98623.53;4105391;28;20695;-91
2022/05/28 06:04:36;;;;;;;5.83;2.10;;;;;;;17.08;67.83;98621.19;4113867;28;20631;-89
2022/05/28 06:06:39;;;;;;;4.73;2.13;;;;;;;17.35;69.22;98621.44;4125155;28;20655;-92
2022/05/28 06:08:44;;;;;;;6.63;2.70;;;;;;;17.55;66.93;98619.59;4128700;28;20767;-91
2022/05/28 06:10:47;;;;;;;6.03;2.53;;;;;;;17.74;66.35;98617.00;4141508;28;20639;-87
2022/05/28 06:12:50;;;;;;;5.97;2.47;;;;;;;17.84;66.33;98617.84;4144432;28;20639;-88
2022/05/28 06:14:53;;;;;;;7.07;2.27;;;;;;;18.03;65.64;98616.06;4126507;28;20789;-87
2022/05/28 06:16:57;;;;;;;7.90;2.33;;;;;;;18.25;64.44;98617.63;4155881;28;20641;-87
2022/05/28 06:19:01;;;;;;;6.10;3.23;;;;;;;18.45;65.13;98615.69;4135746;28;20756;-86
2022/05/28 06:21:04;;;;;;;6.17;2.03;;;;;;;18.64;63.80;98620.09;4126946;28;21334;-89
2022/05/28 06:23:08;;;;;;;9.30;3.50;;;;;;;18.74;62.76;98627.03;4158131;28;20626;-89
2022/05/28 06:25:13;;;;;;;4.00;1.63;;;;;;;18.89;61.18;98621.16;4106515;28;20656;-88
2022/05/28 06:27:16;;;;;;;8.67;2.40;;;;;;;19.03;63.02;98625.19;4157558;28;20629;-88
2022/05/28 06:29:19;;;;;;;5.80;2.17;;;;;;;19.19;61.94;98628.09;4123214;28;21236;-88
2022/05/28 06:31:22;;;;;;;5.70;2.30;;;;;;;19.36;63.64;98632.59;4103695;28;20638;-88
2022/05/28 06:33:26;;;;;;;6.33;1.83;;;;;;;19.47;62.30;98628.78;4154410;28;20664;-88
2022/05/28 06:35:31;;;;;;;8.37;2.63;;;;;;;19.54;60.93;98624.56;4120337;28;20761;-88
2022/05/28 06:37:36;;;;;;;8.90;2.60;;;;;;;19.62;60.91;98627.34;4123676;28;21215;-89
2022/05/28 06:39:40;;;;;;;6.47;2.20;;;;;;;19.73;61.36;98629.78;4138051;28;20636;-87
2022/05/28 06:41:44;;;;;;;9.90;2.20;;;;;;;19.86;60.48;98632.94;4157111;28;20692;-89
2022/05/28 06:43:53;;;;;;;9.43;2.53;;;;;;;20.01;62.36;98619.03;4134516;28;20630;-88
2022/05/28 06:45:56;;;;;;;7.33;2.53;;;;;;;20.20;60.85;98621.53;4136560;28;21296;-91
2022/05/28 06:48:00;;;;;;;8.53;2.07;;;;;;;20.36;59.08;98622.53;4121959;28;20670;-93
2022/05/28 06:52:21;;;;;;;4.93;2.00;;;;;;;20.52;58.86;98624.47;4121909;28;20738;-95
2022/05/28 06:54:25;;;;;;;6.37;1.80;;;;;;;20.54;59.13;98618.03;4158363;28;20659;-92
2022/05/28 06:56:28;;;;;;;8.63;2.43;;;;;;;20.66;59.05;98630.06;4145648;28;20725;-93
2022/05/28 06:58:36;;;;;;;11.53;2.73;;;;;;;20.75;55.82;98623.88;4139185;28;21227;-96
2022/05/28 07:00:40;;;;;;;4.67;2.60;;;;;;;20.86;58.89;98628.94;4128593;28;20651;-88
2022/05/28 07:02:46;;;;;;;7.10;2.27;;;;;;;20.86;57.87;98620.97;4136783;28;20638;-95
2022/05/28 07:04:52;;;;;;;7.50;2.50;;;;;;;20.85;59.43;98622.81;4122781;28;21426;-92
2022/05/28 07:07:01;;;;;;;7.50;2.20;;;;;;;20.80;55.58;98619.75;4134143;28;21280;-96
2022/05/28 07:09:06;;;;;;;6.07;2.20;;;;;;;20.99;58.45;98616.09;4127088;28;20681;-93
2022/05/28 07:11:12;;;;;;;6.00;1.80;;;;;;;20.95;55.61;98606.78;4142383;28;20683;-96
2022/05/28 07:13:16;;;;;;;7.87;2.37;;;;;;;21.13;58.25;98621.66;4151329;28;20792;-91
2022/05/28 07:15:27;;;;;;;9.27;2.40;;;;;;;21.20;58.48;98613.88;4161358;28;20769;-96
2022/05/28 07:17:31;;;;;;;5.67;2.00;;;;;;;21.15;54.60;98618.84;4145081;28;20662;-91
2022/05/28 07:19:41;;;;;;;4.77;1.90;;;;;;;21.12;54.35;98608.53;4143979;28;20625;-95
2022/05/28 07:21:45;;;;;;;6.13;2.43;;;;;;;21.23;54.98;98608.25;4145250;28;21206;-95
2022/05/28 07:23:49;;;;;;;5.27;2.33;;;;;;;21.27;58.22;98606.97;4138818;28;20733;-96
2022/05/28 07:25:59;;;;;;;6.13;2.10;;;;;;;21.32;56.46;98611.63;4139080;28;20634;-90
2022/05/28 07:28:24;;;;;;;8.90;2.47;;;;;;;21.36;56.82;98606.84;4153803;28;21200;-92
2022/05/28 07:30:27;;;;;;;5.47;2.00;;;;;;;21.41;56.93;98607.22;4124747;28;20661;-91
2022/05/28 07:32:35;;;;;;;6.70;2.10;;;;;;;21.31;56.49;98596.69;4141395;28;21150;-92
2022/05/28 07:34:40;;;;;;;5.13;2.33;;;;;;;21.17;54.31;98588.50;4127638;28;20655;-96
2022/05/28 07:36:48;;;;;;;4.03;1.90;;;;;;;21.26;56.99;98594.66;4109683;28;20779;-91
2022/05/28 07:38:52;;;;;;;5.73;1.90;;;;;;;21.30;55.16;98589.75;4143261;28;20686;-93
2022/05/28 07:41:04;;;;;;;6.03;1.77;;;;;;;21.35;55.67;98590.09;4094593;28;20647;-95
2022/05/28 07:43:08;;;;;;;5.93;1.80;;;;;;;21.37;56.00;98592.59;4134000;28;20645;-95
2022/05/28 07:45:15;;;;;;;7.43;2.53;;;;;;;21.39;56.57;98588.78;4126547;28;20672;-93
2022/05/28 07:47:20;;;;;;;5.73;1.93;;;;;;;21.59;55.88;98597.34;4125817;28;20639;-90
2022/05/28 07:49:24;;;;;;;6.00;2.13;;;;;;;21.62;54.21;98589.91;4122865;28;20663;-87
2022/05/28 07:51:27;;;;;;;7.67;2.23;;;;;;;21.73;55.19;98581.63;4152232;28;20645;-90
2022/05/28 07:53:31;;;;;;;12.23;3.33;;;;;;;21.92;54.95;98590.16;4130303;28;20622;-95
2022/05/28 07:55:36;;;;;;;9.50;2.23;;;;;;;21.92;54.34;98581.34;4115244;28;20711;-93
2022/05/28 07:57:40;;;;;;;5.50;1.70;;;;;;;21.84;55.60;98579.47;4146370;28;20653;-91
2022/05/28 07:59:43;;;;;;;5.70;1.90;;;;;;;21.82;55.65;98578.81;4160102;28;20644;-91
2022/05/28 08:01:46;;;;;;;5.67;1.80;;;;;;;21.95;56.83;98581.00;4147798;28;20631;-92
2022/05/28 08:03:52;;;;;;;11.27;2.30;;;;;;;22.10;55.33;98579.38;4147008;28;20642;-91
2022/05/28 08:05:56;;;;;;;7.70;2.23;;;;;;;22.02;53.66;98574.06;4118444;28;21211;-91
2022/05/28 08:08:14;;;;;;;7.00;2.10;;;;;;;21.97;55.42;98579.03;4167326;23;21155;-92
2022/05/28 08:10:17;;;;;;;7.33;2.73;;;;;;;21.49;57.76;98581.53;4167625;28;20672;-93
2022/05/28 08:12:21;;;;;;;4.27;1.97;;;;;;;20.98;57.10;98570.16;4127169;28;20641;-92
2022/05/28 08:14:26;;;;;;;5.43;2.00;;;;;;;20.61;57.63;98565.22;4177370;28;20624;-94
2022/05/28 08:16:54;;;;;;;5.90;2.00;;;;;;;20.15;57.42;98562.88;4147959;28;20650;-94
2022/05/28 08:18:59;;;;;;;6.70;1.90;;;;;;;19.84;58.94;98560.72;4152894;28;20721;-92
2022/05/28 08:23:24;;;;;;;9.53;5.30;;;;;;;20.89;58.62;98560.47;4125275;28;21134;-89
2022/05/28 08:25:28;;;;;;;6.70;1.67;;;;;;;21.03;56.81;98567.03;4145076;28;20627;-90
2022/05/28 08:27:31;;;;;;;5.20;1.73;;;;;;;20.61;57.37;98560.78;4142175;28;20661;-89
2022/05/28 08:29:34;;;;;;;6.23;2.23;;;;;;;20.70;56.96;98559.03;4139346;28;20648;-89
2022/05/28 08:31:38;;;;;;;6.67;1.87;;;;;;;20.57;57.39;98558.59;4136276;28;20638;-91
2022/05/28 08:33:42;;;;;;;4.93;1.83;;;;;;;20.27;58.73;98550.25;4153817;28;20660;-91
2022/05/28 08:35:48;;;;;;;5.90;2.10;;;;;;;20.39;56.29;98555.97;4133533;28;20649;-90
2022/05/28 08:37:51;;;;;;;6.20;1.80;;;;;;;20.48;58.59;98552.38;4114064;28;20722;-89
2022/05/28 08:39:54;;;;;;;5.10;1.63;;;;;;;20.75;56.58;98559.38;4139876;28;21276;-88
2022/05/28 08:42:27;;;;;;;5.10;2.20;;;;;;;21.10;56.68;98557.44;4124213;28;20646;-85
2022/05/28 08:44:32;;;;;;;6.60;3.07;;;;;;;21.38;55.79;98552.59;4130648;28;21097;-87
2022/05/28 08:46:38;;;;;;;8.43;3.33;;;;;;;21.12;56.97;98548.31;4127843;28;20659;-89
2022/05/28 08:48:45;;;;;;;6.70;1.80;;;;;;;21.04;56.09;98553.59;4135738;28;20654;-91
2022/05/28 08:50:54;;;;;;;5.50;1.90;;;;;;;20.82;55.25;98548.00;4127765;28;20662;-90
2022/05/28 08:53:04;;;;;;;4.40;1.77;;;;;;;20.84;56.25;98546.84;4140875;28;21019;-87
2022/05/28 08:55:10;;;;;;;3.93;1.67;;;;;;;21.02;54.50;98544.16;4141627;28;21327;-87
2022/05/28 08:57:17;;;;;;;4.77;2.00;;;;;;;21.26;55.72;98541.59;4136376;28;20634;-88
2022/05/28 08:59:25;;;;;;;5.87;1.80;;;;;;;21.21;51.90;98535.94;4140951;28;20645;-87
2022/05/28 09:01:49;;;;;;;7.20;1.80;;;;;;;20.50;55.04;98534.50;4145772;28;21247;-92
2022/05/28 09:03:57;;;;;;;10.30;2.13;;;;;;;20.48;56.07;98530.34;4138742;28;21216;-90
2022/05/28 09:06:04;;;;;;;3.30;1.73;;;;;;;20.77;53.39;98529.06;4138695;28;21243;-88
2022/05/28 09:08:09;;;;;;;6.13;1.63;;;;;;;20.86;53.67;98533.44;4140158;28;20647;-91
2022/05/28 09:10:18;;;;;;;7.20;1.70;;;;;;;21.14;52.78;98527.78;4111475;28;20674;-89
2022/05/28 09:12:26;;;;;;;9.43;1.90;;;;;;;21.06;53.58;98532.22;4133565;28;21449;-89
2022/05/28 09:14:34;;;;;;;3.27;1.80;;;;;;;21.02;55.04;98526.41;4149483;28;21016;-91
2022/05/28 09:16:39;;;;;;;6.70;1.97;;;;;;;21.16;55.02;98530.28;4121194;28;20676;-91
2022/05/28 09:18:46;;;;;;;6.00;1.83;;;;;;;21.46;55.84;98518.13;4122381;28;20638;-90
2022/05/28 09:20:50;;;;;;;9.97;2.33;;;;;;;21.65;56.01;98525.00;4127008;28;20666;-91
2022/05/28 09:22:55;;;;;;;3.80;1.60;;;;;;;21.81;56.59;98526.72;4143601;28;20633;-92
2022/05/28 09:25:01;;;;;;;6.37;1.93;;;;;;;21.96;54.05;98516.25;4122733;28;20761;-92
2022/05/28 09:27:20;;;;;;;5.53;2.07;;;;;;;21.60;54.92;98530.78;4153004;28;20638;-91
2022/05/28 09:29:40;;;;;;;3.83;1.50;;;;;;;21.22;55.92;98519.03;4130817;28;21190;-91
2022/05/28 09:31:55;;;;;;;5.63;1.73;;;;;;;21.01;56.19;98521.25;4129544;28;20660;-92
2022/05/28 09:34:31;;;;;;;7.40;1.90;;;;;;;21.23;52.63;98518.03;4154097;28;22121;-92
2022/05/28 09:36:41;;;;;;;4.87;1.90;;;;;;;21.03;52.67;98511.31;4125369;28;20640;-91
2022/05/28 09:38:54;;;;;;;6.90;1.70;;;;;;;20.85;55.04;98507.91;4108110;28;21325;-92
2022/05/28 09:41:04;;;;;;;4.13;1.90;;;;;;;21.08;54.54;98507.19;4151830;28;21188;-93
2022/05/28 09:43:39;;;;;;;3.70;1.87;;;;;;;21.44;53.37;98511.28;4139562;28;20674;-91
2022/05/28 09:45:47;;;;;;;3.80;1.70;;;;;;;21.28;55.34;98517.38;4082841;28;20623;-92
2022/05/28 09:48:06;;;;;;;6.43;1.80;;;;;;;21.10;54.57;98518.47;4122125;28;20624;-93
2022/05/28 09:50:18;;;;;;;5.37;1.80;;;;;;;20.92;54.74;98511.59;4125984;28;20624;-90
2022/05/28 09:52:25;;;;;;;5.27;1.60;;;;;;;21.08;54.77;98512.50;4125926;28;20642;-91
2022/05/28 09:54:33;;;;;;;3.47;1.60;;;;;;;21.10;50.48;98512.34;4125807;28;20887;-91